sensor_id;sensor_type;location;lat;lon;timestamp;P1;durP1;ratioP1;P2;durP2;ratioP2
65567;SDS011;52211;50.154;8.682;2023-03-30T00:01:22;3.73;;;2.63;;
65567;SDS011;52211;50.154;8.682;2023-03-30T00:03:51;2.67;;;2.47;;
65567;SDS011;52211;50.154;8.682;2023-03-30T00:06:21;3.93;;;2.47;;
65567;SDS011;52211;50.154;8.682;2023-03-30T00:08:49;2.93;;;2.60;;
65567;SDS011;52211;50.154;8.682;2023-03-30T00:11:19;4.50;;;2.70;;
65567;SDS011;52211;50.154;8.682;2023-03-30T00:13:48;4.23;;;3.03;;
65567;SDS011;52211;50.154;8.682;2023-03-30T00:16:18;4.53;;;2.90;;
65567;SDS011;52211;50.154;8.682;2023-03-30T00:18:49;4.17;;;2.60;;
65567;SDS011;52211;50.154;8.682;2023-03-30T00:21:19;3.50;;;3.20;;
65567;SDS011;52211;50.154;8.682;2023-03-30T00:23:46;4.60;;;3.07;;
65567;SDS011;52211;50.154;8.682;2023-03-30T00:26:16;4.07;;;3.03;;
65567;SDS011;52211;50.154;8.682;2023-03-30T00:28:48;2.70;;;2.50;;
65567;SDS011;52211;50.154;8.682;2023-03-30T00:31:15;2.73;;;2.47;;
65567;SDS011;52211;50.154;8.682;2023-03-30T00:33:45;4.30;;;2.90;;
65567;SDS011;52211;50.154;8.682;2023-03-30T00:36:13;4.03;;;3.63;;
65567;SDS011;52211;50.154;8.682;2023-03-30T00:38:45;5.70;;;3.33;;
65567;SDS011;52211;50.154;8.682;2023-03-30T00:41:14;3.10;;;2.70;;
65567;SDS011;52211;50.154;8.682;2023-03-30T00:46:54;3.77;;;2.37;;
65567;SDS011;52211;50.154;8.682;2023-03-30T00:49:24;2.90;;;2.60;;
65567;SDS011;52211;50.154;8.682;2023-03-30T00:51:53;2.97;;;2.63;;
65567;SDS011;52211;50.154;8.682;2023-03-30T00:54:25;3.17;;;2.53;;
65567;SDS011;52211;50.154;8.682;2023-03-30T00:56:57;6.63;;;2.63;;
65567;SDS011;52211;50.154;8.682;2023-03-30T00:59:24;2.63;;;2.43;;
65567;SDS011;52211;50.154;8.682;2023-03-30T01:01:54;3.50;;;2.20;;
65567;SDS011;52211;50.154;8.682;2023-03-30T01:04:24;4.30;;;2.50;;
65567;SDS011;52211;50.154;8.682;2023-03-30T01:06:53;2.23;;;2.03;;
65567;SDS011;52211;50.154;8.682;2023-03-30T01:09:23;3.23;;;2.27;;
65567;SDS011;52211;50.154;8.682;2023-03-30T01:11:53;3.90;;;2.30;;
65567;SDS011;52211;50.154;8.682;2023-03-30T01:14:22;2.40;;;2.10;;
65567;SDS011;52211;50.154;8.682;2023-03-30T01:22:40;2.47;;;2.10;;
65567;SDS011;52211;50.154;8.682;2023-03-30T01:34:32;3.63;;;2.07;;
65567;SDS011;52211;50.154;8.682;2023-03-30T01:42:56;3.97;;;2.70;;
65567;SDS011;52211;50.154;8.682;2023-03-30T01:45:42;4.50;;;2.57;;
65567;SDS011;52211;50.154;8.682;2023-03-30T01:50:55;5.30;;;3.00;;
65567;SDS011;52211;50.154;8.682;2023-03-30T01:56:26;2.73;;;2.37;;
65567;SDS011;52211;50.154;8.682;2023-03-30T01:59:17;4.07;;;2.50;;
65567;SDS011;52211;50.154;8.682;2023-03-30T02:01:54;3.67;;;2.67;;
65567;SDS011;52211;50.154;8.682;2023-03-30T02:04:29;2.50;;;2.30;;
65567;SDS011;52211;50.154;8.682;2023-03-30T02:07:09;4.97;;;2.50;;
65567;SDS011;52211;50.154;8.682;2023-03-30T02:09:46;5.03;;;2.90;;
65567;SDS011;52211;50.154;8.682;2023-03-30T02:12:19;4.00;;;2.40;;
65567;SDS011;52211;50.154;8.682;2023-03-30T02:14:49;4.40;;;2.37;;
65567;SDS011;52211;50.154;8.682;2023-03-30T02:17:21;2.77;;;2.30;;
65567;SDS011;52211;50.154;8.682;2023-03-30T02:19:50;3.37;;;2.27;;
65567;SDS011;52211;50.154;8.682;2023-03-30T02:22:23;3.60;;;2.43;;
65567;SDS011;52211;50.154;8.682;2023-03-30T02:24:52;3.93;;;2.27;;
65567;SDS011;52211;50.154;8.682;2023-03-30T02:27:25;5.67;;;2.50;;
65567;SDS011;52211;50.154;8.682;2023-03-30T02:29:53;6.47;;;2.67;;
65567;SDS011;52211;50.154;8.682;2023-03-30T02:32:24;6.67;;;2.60;;
65567;SDS011;52211;50.154;8.682;2023-03-30T02:35:03;3.57;;;2.20;;
65567;SDS011;52211;50.154;8.682;2023-03-30T02:43:33;2.50;;;2.30;;
65567;SDS011;52211;50.154;8.682;2023-03-30T02:46:26;2.00;;;1.90;;
65567;SDS011;52211;50.154;8.682;2023-03-30T02:52:27;3.43;;;2.60;;
65567;SDS011;52211;50.154;8.682;2023-03-30T02:55:18;3.20;;;2.10;;
65567;SDS011;52211;50.154;8.682;2023-03-30T02:58:04;2.97;;;2.37;;
65567;SDS011;52211;50.154;8.682;2023-03-30T03:01:09;5.00;;;2.70;;
65567;SDS011;52211;50.154;8.682;2023-03-30T03:03:55;3.80;;;2.50;;
65567;SDS011;52211;50.154;8.682;2023-03-30T03:06:29;3.83;;;2.90;;
65567;SDS011;52211;50.154;8.682;2023-03-30T03:09:01;3.47;;;2.40;;
65567;SDS011;52211;50.154;8.682;2023-03-30T03:11:32;4.43;;;2.43;;
65567;SDS011;52211;50.154;8.682;2023-03-30T03:13:59;4.03;;;2.37;;
65567;SDS011;52211;50.154;8.682;2023-03-30T03:16:30;2.60;;;2.40;;
65567;SDS011;52211;50.154;8.682;2023-03-30T03:19:19;4.27;;;2.40;;
65567;SDS011;52211;50.154;8.682;2023-03-30T03:21:48;3.83;;;2.73;;
65567;SDS011;52211;50.154;8.682;2023-03-30T03:24:17;4.60;;;2.40;;
65567;SDS011;52211;50.154;8.682;2023-03-30T03:27:09;3.80;;;2.10;;
65567;SDS011;52211;50.154;8.682;2023-03-30T03:29:54;4.80;;;2.40;;
65567;SDS011;52211;50.154;8.682;2023-03-30T03:32:21;3.33;;;2.30;;
65567;SDS011;52211;50.154;8.682;2023-03-30T03:34:49;4.70;;;2.20;;
65567;SDS011;52211;50.154;8.682;2023-03-30T03:37:17;2.90;;;2.27;;
65567;SDS011;52211;50.154;8.682;2023-03-30T03:39:44;2.87;;;2.20;;
65567;SDS011;52211;50.154;8.682;2023-03-30T03:42:19;4.20;;;2.63;;
65567;SDS011;52211;50.154;8.682;2023-03-30T03:45:06;2.40;;;2.30;;
65567;SDS011;52211;50.154;8.682;2023-03-30T03:47:51;6.30;;;2.00;;
65567;SDS011;52211;50.154;8.682;2023-03-30T03:50:29;2.80;;;2.20;;
65567;SDS011;52211;50.154;8.682;2023-03-30T03:52:56;3.83;;;2.50;;
65567;SDS011;52211;50.154;8.682;2023-03-30T03:55:23;4.20;;;2.97;;
65567;SDS011;52211;50.154;8.682;2023-03-30T03:57:55;5.20;;;2.47;;
65567;SDS011;52211;50.154;8.682;2023-03-30T04:00:25;4.80;;;2.53;;
65567;SDS011;52211;50.154;8.682;2023-03-30T04:02:55;6.03;;;2.67;;
65567;SDS011;52211;50.154;8.682;2023-03-30T04:05:24;6.87;;;2.53;;
65567;SDS011;52211;50.154;8.682;2023-03-30T04:07:54;3.87;;;2.40;;
65567;SDS011;52211;50.154;8.682;2023-03-30T04:10:22;5.40;;;2.40;;
65567;SDS011;52211;50.154;8.682;2023-03-30T04:13:02;4.37;;;2.20;;
65567;SDS011;52211;50.154;8.682;2023-03-30T04:15:50;4.00;;;2.20;;
65567;SDS011;52211;50.154;8.682;2023-03-30T04:18:52;3.97;;;1.93;;
65567;SDS011;52211;50.154;8.682;2023-03-30T04:21:35;2.33;;;2.00;;
65567;SDS011;52211;50.154;8.682;2023-03-30T04:24:29;2.90;;;2.37;;
65567;SDS011;52211;50.154;8.682;2023-03-30T04:27:19;3.50;;;2.10;;
65567;SDS011;52211;50.154;8.682;2023-03-30T04:30:17;2.90;;;2.30;;
65567;SDS011;52211;50.154;8.682;2023-03-30T04:33:24;4.67;;;2.30;;
65567;SDS011;52211;50.154;8.682;2023-03-30T04:36:14;5.10;;;2.43;;
65567;SDS011;52211;50.154;8.682;2023-03-30T04:38:57;4.37;;;2.40;;
65567;SDS011;52211;50.154;8.682;2023-03-30T04:41:46;5.83;;;2.47;;
65567;SDS011;52211;50.154;8.682;2023-03-30T04:44:36;6.50;;;2.30;;
65567;SDS011;52211;50.154;8.682;2023-03-30T04:47:11;4.13;;;2.20;;
65567;SDS011;52211;50.154;8.682;2023-03-30T04:49:56;5.73;;;2.60;;
65567;SDS011;52211;50.154;8.682;2023-03-30T04:52:43;4.93;;;3.10;;
65567;SDS011;52211;50.154;8.682;2023-03-30T04:55:24;3.30;;;2.23;;
65567;SDS011;52211;50.154;8.682;2023-03-30T04:58:03;3.37;;;2.73;;
65567;SDS011;52211;50.154;8.682;2023-03-30T05:01:08;4.07;;;2.00;;
65567;SDS011;52211;50.154;8.682;2023-03-30T05:04:01;3.40;;;2.00;;
65567;SDS011;52211;50.154;8.682;2023-03-30T05:06:51;2.93;;;2.33;;
65567;SDS011;52211;50.154;8.682;2023-03-30T05:09:36;2.83;;;2.07;;
65567;SDS011;52211;50.154;8.682;2023-03-30T05:12:21;3.03;;;2.67;;
65567;SDS011;52211;50.154;8.682;2023-03-30T05:15:11;5.43;;;2.67;;
65567;SDS011;52211;50.154;8.682;2023-03-30T05:17:44;5.53;;;2.60;;
65567;SDS011;52211;50.154;8.682;2023-03-30T05:20:19;4.27;;;2.67;;
65567;SDS011;52211;50.154;8.682;2023-03-30T05:22:55;4.33;;;2.23;;
65567;SDS011;52211;50.154;8.682;2023-03-30T05:25:53;6.50;;;2.67;;
65567;SDS011;52211;50.154;8.682;2023-03-30T05:28:49;3.97;;;2.80;;
65567;SDS011;52211;50.154;8.682;2023-03-30T05:31:28;9.80;;;3.13;;
65567;SDS011;52211;50.154;8.682;2023-03-30T05:34:09;7.90;;;3.23;;
65567;SDS011;52211;50.154;8.682;2023-03-30T05:36:59;7.90;;;2.50;;
65567;SDS011;52211;50.154;8.682;2023-03-30T05:39:39;4.70;;;2.57;;
65567;SDS011;52211;50.154;8.682;2023-03-30T05:42:25;5.73;;;2.43;;
65567;SDS011;52211;50.154;8.682;2023-03-30T05:45:01;8.87;;;3.20;;
65567;SDS011;52211;50.154;8.682;2023-03-30T05:48:06;3.70;;;2.47;;
65567;SDS011;52211;50.154;8.682;2023-03-30T05:50:46;4.73;;;2.87;;
65567;SDS011;52211;50.154;8.682;2023-03-30T05:53:27;6.00;;;2.43;;
65567;SDS011;52211;50.154;8.682;2023-03-30T05:56:09;5.40;;;2.30;;
65567;SDS011;52211;50.154;8.682;2023-03-30T05:59:08;6.37;;;2.90;;
65567;SDS011;52211;50.154;8.682;2023-03-30T06:01:50;7.73;;;2.90;;
65567;SDS011;52211;50.154;8.682;2023-03-30T06:04:19;5.33;;;2.47;;
65567;SDS011;52211;50.154;8.682;2023-03-30T06:06:47;3.93;;;2.60;;
65567;SDS011;52211;50.154;8.682;2023-03-30T06:09:14;4.07;;;2.40;;
65567;SDS011;52211;50.154;8.682;2023-03-30T06:11:41;7.40;;;2.20;;
65567;SDS011;52211;50.154;8.682;2023-03-30T06:14:17;3.33;;;2.50;;
65567;SDS011;52211;50.154;8.682;2023-03-30T06:17:07;5.83;;;2.40;;
65567;SDS011;52211;50.154;8.682;2023-03-30T06:19:38;6.60;;;2.40;;
65567;SDS011;52211;50.154;8.682;2023-03-30T06:22:05;5.93;;;2.33;;
65567;SDS011;52211;50.154;8.682;2023-03-30T06:24:46;7.23;;;2.77;;
65567;SDS011;52211;50.154;8.682;2023-03-30T06:27:13;4.83;;;2.93;;
65567;SDS011;52211;50.154;8.682;2023-03-30T06:29:40;5.27;;;2.53;;
65567;SDS011;52211;50.154;8.682;2023-03-30T06:32:07;5.00;;;2.43;;
65567;SDS011;52211;50.154;8.682;2023-03-30T06:34:37;5.57;;;2.60;;
65567;SDS011;52211;50.154;8.682;2023-03-30T06:37:05;4.03;;;2.10;;
65567;SDS011;52211;50.154;8.682;2023-03-30T06:39:36;2.87;;;2.30;;
65567;SDS011;52211;50.154;8.682;2023-03-30T06:42:04;6.60;;;2.30;;
65567;SDS011;52211;50.154;8.682;2023-03-30T06:44:50;10.33;;;3.93;;
65567;SDS011;52211;50.154;8.682;2023-03-30T06:47:22;5.63;;;2.20;;
65567;SDS011;52211;50.154;8.682;2023-03-30T06:49:52;6.90;;;2.57;;
65567;SDS011;52211;50.154;8.682;2023-03-30T06:52:30;3.60;;;2.30;;
65567;SDS011;52211;50.154;8.682;2023-03-30T06:55:02;4.13;;;2.27;;
65567;SDS011;52211;50.154;8.682;2023-03-30T06:57:35;2.73;;;2.53;;
65567;SDS011;52211;50.154;8.682;2023-03-30T07:00:07;4.20;;;2.27;;
65567;SDS011;52211;50.154;8.682;2023-03-30T07:02:39;4.37;;;2.17;;
65567;SDS011;52211;50.154;8.682;2023-03-30T07:05:18;4.63;;;2.07;;
65567;SDS011;52211;50.154;8.682;2023-03-30T07:08:19;5.30;;;2.10;;
65567;SDS011;52211;50.154;8.682;2023-03-30T07:10:51;4.50;;;2.30;;
65567;SDS011;52211;50.154;8.682;2023-03-30T07:13:20;5.17;;;2.37;;
65567;SDS011;52211;50.154;8.682;2023-03-30T07:15:50;8.60;;;2.50;;
65567;SDS011;52211;50.154;8.682;2023-03-30T07:18:17;5.33;;;2.20;;
65567;SDS011;52211;50.154;8.682;2023-03-30T07:20:52;7.33;;;2.63;;
65567;SDS011;52211;50.154;8.682;2023-03-30T07:23:24;4.40;;;1.97;;
65567;SDS011;52211;50.154;8.682;2023-03-30T07:25:52;3.27;;;1.87;;
65567;SDS011;52211;50.154;8.682;2023-03-30T07:28:30;3.83;;;2.00;;
65567;SDS011;52211;50.154;8.682;2023-03-30T07:31:09;7.97;;;2.33;;
65567;SDS011;52211;50.154;8.682;2023-03-30T07:33:42;6.57;;;2.67;;
65567;SDS011;52211;50.154;8.682;2023-03-30T07:36:16;5.83;;;2.33;;
65567;SDS011;52211;50.154;8.682;2023-03-30T07:38:46;6.07;;;2.03;;
65567;SDS011;52211;50.154;8.682;2023-03-30T07:41:13;4.87;;;2.27;;
65567;SDS011;52211;50.154;8.682;2023-03-30T07:43:45;5.23;;;2.27;;
65567;SDS011;52211;50.154;8.682;2023-03-30T07:46:16;5.73;;;2.73;;
65567;SDS011;52211;50.154;8.682;2023-03-30T07:48:46;3.73;;;2.10;;
65567;SDS011;52211;50.154;8.682;2023-03-30T07:51:18;4.80;;;2.40;;
65567;SDS011;52211;50.154;8.682;2023-03-30T07:53:59;7.40;;;2.53;;
65567;SDS011;52211;50.154;8.682;2023-03-30T07:56:52;3.70;;;1.90;;
65567;SDS011;52211;50.154;8.682;2023-03-30T07:59:22;7.23;;;2.50;;
65567;SDS011;52211;50.154;8.682;2023-03-30T08:01:54;4.77;;;2.50;;
65567;SDS011;52211;50.154;8.682;2023-03-30T08:04:48;4.07;;;1.80;;
65567;SDS011;52211;50.154;8.682;2023-03-30T08:07:25;3.97;;;2.27;;
65567;SDS011;52211;50.154;8.682;2023-03-30T08:10:02;3.80;;;1.80;;
65567;SDS011;52211;50.154;8.682;2023-03-30T08:12:35;4.50;;;2.10;;
65567;SDS011;52211;50.154;8.682;2023-03-30T08:15:03;8.00;;;2.63;;
65567;SDS011;52211;50.154;8.682;2023-03-30T08:17:33;3.70;;;2.10;;
65567;SDS011;52211;50.154;8.682;2023-03-30T08:20:01;6.57;;;2.33;;
65567;SDS011;52211;50.154;8.682;2023-03-30T08:22:38;4.27;;;2.47;;
65567;SDS011;52211;50.154;8.682;2023-03-30T08:25:05;6.77;;;3.10;;
65567;SDS011;52211;50.154;8.682;2023-03-30T08:27:33;4.63;;;2.53;;
65567;SDS011;52211;50.154;8.682;2023-03-30T08:30:00;3.33;;;2.13;;
65567;SDS011;52211;50.154;8.682;2023-03-30T08:32:27;9.93;;;2.23;;
65567;SDS011;52211;50.154;8.682;2023-03-30T08:34:54;3.57;;;2.40;;
65567;SDS011;52211;50.154;8.682;2023-03-30T08:37:28;3.07;;;2.27;;
65567;SDS011;52211;50.154;8.682;2023-03-30T08:40:00;4.80;;;2.17;;
65567;SDS011;52211;50.154;8.682;2023-03-30T08:42:30;5.27;;;2.13;;
65567;SDS011;52211;50.154;8.682;2023-03-30T08:45:11;2.43;;;2.17;;
65567;SDS011;52211;50.154;8.682;2023-03-30T08:47:39;3.60;;;2.07;;
65567;SDS011;52211;50.154;8.682;2023-03-30T08:50:17;2.47;;;2.10;;
65567;SDS011;52211;50.154;8.682;2023-03-30T08:52:57;5.57;;;2.23;;
65567;SDS011;52211;50.154;8.682;2023-03-30T08:55:40;4.10;;;2.83;;
65567;SDS011;52211;50.154;8.682;2023-03-30T09:01:14;3.17;;;2.30;;
65567;SDS011;52211;50.154;8.682;2023-03-30T09:04:07;2.80;;;2.00;;
65567;SDS011;52211;50.154;8.682;2023-03-30T09:06:52;2.57;;;2.37;;
65567;SDS011;52211;50.154;8.682;2023-03-30T09:09:27;2.63;;;2.37;;
65567;SDS011;52211;50.154;8.682;2023-03-30T09:12:15;2.13;;;1.93;;
65567;SDS011;52211;50.154;8.682;2023-03-30T09:17:49;3.47;;;2.40;;
65567;SDS011;52211;50.154;8.682;2023-03-30T09:20:29;4.03;;;2.57;;
65567;SDS011;52211;50.154;8.682;2023-03-30T09:23:01;3.50;;;2.57;;
65567;SDS011;52211;50.154;8.682;2023-03-30T09:25:40;5.80;;;2.50;;
65567;SDS011;52211;50.154;8.682;2023-03-30T09:28:32;3.57;;;2.50;;
65567;SDS011;52211;50.154;8.682;2023-03-30T09:34:12;3.27;;;2.27;;
65567;SDS011;52211;50.154;8.682;2023-03-30T09:36:55;4.80;;;2.70;;
65567;SDS011;52211;50.154;8.682;2023-03-30T09:39:29;2.77;;;2.57;;
65567;SDS011;52211;50.154;8.682;2023-03-30T09:47:41;3.00;;;2.03;;
65567;SDS011;52211;50.154;8.682;2023-03-30T09:50:22;3.87;;;2.33;;
65567;SDS011;52211;50.154;8.682;2023-03-30T09:53:01;3.03;;;2.00;;
65567;SDS011;52211;50.154;8.682;2023-03-30T09:55:35;3.70;;;2.77;;
65567;SDS011;52211;50.154;8.682;2023-03-30T09:58:16;3.97;;;2.60;;
65567;SDS011;52211;50.154;8.682;2023-03-30T10:03:32;3.57;;;2.13;;
65567;SDS011;52211;50.154;8.682;2023-03-30T10:06:06;4.63;;;2.53;;
65567;SDS011;52211;50.154;8.682;2023-03-30T10:08:51;4.67;;;1.97;;
65567;SDS011;52211;50.154;8.682;2023-03-30T10:14:28;2.33;;;2.13;;
65567;SDS011;52211;50.154;8.682;2023-03-30T10:17:00;6.70;;;2.60;;
65567;SDS011;52211;50.154;8.682;2023-03-30T10:19:34;3.90;;;2.40;;
65567;SDS011;52211;50.154;8.682;2023-03-30T10:22:12;2.87;;;2.50;;
65567;SDS011;52211;50.154;8.682;2023-03-30T10:24:50;3.03;;;2.10;;
65567;SDS011;52211;50.154;8.682;2023-03-30T10:27:25;3.00;;;2.70;;
65567;SDS011;52211;50.154;8.682;2023-03-30T10:30:11;3.67;;;2.60;;
65567;SDS011;52211;50.154;8.682;2023-03-30T10:32:51;2.37;;;2.13;;
65567;SDS011;52211;50.154;8.682;2023-03-30T10:35:24;3.03;;;2.20;;
65567;SDS011;52211;50.154;8.682;2023-03-30T10:38:03;5.47;;;2.10;;
65567;SDS011;52211;50.154;8.682;2023-03-30T10:40:41;7.87;;;2.60;;
65567;SDS011;52211;50.154;8.682;2023-03-30T10:43:14;3.97;;;2.53;;
65567;SDS011;52211;50.154;8.682;2023-03-30T10:45:52;3.50;;;2.40;;
65567;SDS011;52211;50.154;8.682;2023-03-30T10:56:50;3.77;;;2.13;;
65567;SDS011;52211;50.154;8.682;2023-03-30T11:05:18;3.43;;;1.93;;
65567;SDS011;52211;50.154;8.682;2023-03-30T11:08:02;2.23;;;1.80;;
65567;SDS011;52211;50.154;8.682;2023-03-30T11:10:47;5.37;;;2.00;;
65567;SDS011;52211;50.154;8.682;2023-03-30T11:13:32;2.17;;;1.80;;
65567;SDS011;52211;50.154;8.682;2023-03-30T11:16:12;2.37;;;2.03;;
65567;SDS011;52211;50.154;8.682;2023-03-30T11:24:29;2.57;;;1.80;;
65567;SDS011;52211;50.154;8.682;2023-03-30T11:27:19;2.60;;;1.90;;
65567;SDS011;52211;50.154;8.682;2023-03-30T11:40:55;2.10;;;1.30;;
65567;SDS011;52211;50.154;8.682;2023-03-30T11:43:35;4.93;;;2.10;;
65567;SDS011;52211;50.154;8.682;2023-03-30T11:52:21;2.83;;;1.60;;
65567;SDS011;52211;50.154;8.682;2023-03-30T11:57:39;1.53;;;1.10;;
65567;SDS011;52211;50.154;8.682;2023-03-30T12:03:35;3.07;;;1.87;;
65567;SDS011;52211;50.154;8.682;2023-03-30T12:09:21;3.40;;;1.30;;
65567;SDS011;52211;50.154;8.682;2023-03-30T12:26:28;2.43;;;1.27;;
65567;SDS011;52211;50.154;8.682;2023-03-30T12:34:18;3.30;;;0.90;;
65567;SDS011;52211;50.154;8.682;2023-03-30T12:36:53;1.83;;;0.73;;
65567;SDS011;52211;50.154;8.682;2023-03-30T12:39:31;2.23;;;1.33;;
65567;SDS011;52211;50.154;8.682;2023-03-30T12:42:15;4.20;;;1.20;;
65567;SDS011;52211;50.154;8.682;2023-03-30T12:45:23;2.17;;;0.70;;
65567;SDS011;52211;50.154;8.682;2023-03-30T12:54:27;1.33;;;0.83;;
65567;SDS011;52211;50.154;8.682;2023-03-30T12:57:35;1.20;;;1.00;;
65567;SDS011;52211;50.154;8.682;2023-03-30T13:00:31;2.63;;;1.03;;
65567;SDS011;52211;50.154;8.682;2023-03-30T13:06:23;3.60;;;1.00;;
65567;SDS011;52211;50.154;8.682;2023-03-30T13:11:42;1.53;;;0.90;;
65567;SDS011;52211;50.154;8.682;2023-03-30T13:24:51;1.30;;;0.80;;
65567;SDS011;52211;50.154;8.682;2023-03-30T13:30:10;0.83;;;0.83;;
65567;SDS011;52211;50.154;8.682;2023-03-30T13:43:56;0.83;;;0.80;;
65567;SDS011;52211;50.154;8.682;2023-03-30T13:52:54;0.90;;;0.90;;
65567;SDS011;52211;50.154;8.682;2023-03-30T13:58:06;2.00;;;1.00;;
65567;SDS011;52211;50.154;8.682;2023-03-30T14:01:01;3.93;;;1.23;;
65567;SDS011;52211;50.154;8.682;2023-03-30T14:03:41;1.87;;;1.07;;
65567;SDS011;52211;50.154;8.682;2023-03-30T14:08:48;2.20;;;0.80;;
65567;SDS011;52211;50.154;8.682;2023-03-30T14:11:32;1.07;;;0.70;;
65567;SDS011;52211;50.154;8.682;2023-03-30T14:16:53;1.17;;;0.87;;
65567;SDS011;52211;50.154;8.682;2023-03-30T14:19:33;0.90;;;0.90;;
65567;SDS011;52211;50.154;8.682;2023-03-30T14:22:09;5.50;;;1.47;;
65567;SDS011;52211;50.154;8.682;2023-03-30T14:24:56;1.40;;;1.40;;
65567;SDS011;52211;50.154;8.682;2023-03-30T14:27:35;1.23;;;1.10;;
65567;SDS011;52211;50.154;8.682;2023-03-30T14:30:16;1.30;;;1.10;;
65567;SDS011;52211;50.154;8.682;2023-03-30T14:33:03;2.33;;;1.10;;
65567;SDS011;52211;50.154;8.682;2023-03-30T14:35:36;3.70;;;1.47;;
65567;SDS011;52211;50.154;8.682;2023-03-30T14:38:12;0.97;;;0.93;;
65567;SDS011;52211;50.154;8.682;2023-03-30T14:40:55;3.33;;;1.13;;
65567;SDS011;52211;50.154;8.682;2023-03-30T14:43:28;1.00;;;0.90;;
65567;SDS011;52211;50.154;8.682;2023-03-30T14:46:03;1.97;;;0.90;;
65567;SDS011;52211;50.154;8.682;2023-03-30T14:48:35;0.77;;;0.77;;
65567;SDS011;52211;50.154;8.682;2023-03-30T14:54:02;1.47;;;0.90;;
65567;SDS011;52211;50.154;8.682;2023-03-30T14:56:31;1.00;;;1.00;;
65567;SDS011;52211;50.154;8.682;2023-03-30T14:59:01;2.90;;;1.00;;
65567;SDS011;52211;50.154;8.682;2023-03-30T15:01:31;1.33;;;1.00;;
65567;SDS011;52211;50.154;8.682;2023-03-30T15:04:03;0.93;;;0.83;;
65567;SDS011;52211;50.154;8.682;2023-03-30T15:06:46;1.00;;;1.00;;
65567;SDS011;52211;50.154;8.682;2023-03-30T15:09:21;1.67;;;0.97;;
65567;SDS011;52211;50.154;8.682;2023-03-30T15:11:54;1.40;;;1.20;;
65567;SDS011;52211;50.154;8.682;2023-03-30T15:14:30;2.17;;;1.27;;
65567;SDS011;52211;50.154;8.682;2023-03-30T15:17:05;1.30;;;1.20;;
65567;SDS011;52211;50.154;8.682;2023-03-30T15:19:40;2.60;;;0.93;;
65567;SDS011;52211;50.154;8.682;2023-03-30T15:22:16;2.10;;;0.93;;
65567;SDS011;52211;50.154;8.682;2023-03-30T15:25:03;1.10;;;0.90;;
65567;SDS011;52211;50.154;8.682;2023-03-30T15:27:36;2.10;;;0.93;;
65567;SDS011;52211;50.154;8.682;2023-03-30T15:30:31;1.30;;;0.90;;
65567;SDS011;52211;50.154;8.682;2023-03-30T15:36:19;1.07;;;0.90;;
65567;SDS011;52211;50.154;8.682;2023-03-30T15:38:52;1.10;;;1.00;;
65567;SDS011;52211;50.154;8.682;2023-03-30T15:41:44;1.10;;;1.03;;
65567;SDS011;52211;50.154;8.682;2023-03-30T15:44:17;1.03;;;0.90;;
65567;SDS011;52211;50.154;8.682;2023-03-30T15:46:48;1.80;;;0.90;;
65567;SDS011;52211;50.154;8.682;2023-03-30T15:49:26;0.97;;;0.80;;
65567;SDS011;52211;50.154;8.682;2023-03-30T15:52:33;0.90;;;0.90;;
65567;SDS011;52211;50.154;8.682;2023-03-30T15:57:51;0.90;;;0.90;;
65567;SDS011;52211;50.154;8.682;2023-03-30T16:00:22;1.13;;;0.80;;
65567;SDS011;52211;50.154;8.682;2023-03-30T16:02:57;1.90;;;1.50;;
65567;SDS011;52211;50.154;8.682;2023-03-30T16:05:30;1.77;;;0.93;;
65567;SDS011;52211;50.154;8.682;2023-03-30T16:07:59;1.40;;;1.10;;
65567;SDS011;52211;50.154;8.682;2023-03-30T16:10:31;2.00;;;1.17;;
65567;SDS011;52211;50.154;8.682;2023-03-30T16:13:04;1.43;;;1.20;;
65567;SDS011;52211;50.154;8.682;2023-03-30T16:15:32;1.90;;;1.07;;
65567;SDS011;52211;50.154;8.682;2023-03-30T16:17:59;1.10;;;1.00;;
65567;SDS011;52211;50.154;8.682;2023-03-30T16:20:31;2.10;;;0.97;;
65567;SDS011;52211;50.154;8.682;2023-03-30T16:23:03;2.20;;;0.90;;
65567;SDS011;52211;50.154;8.682;2023-03-30T16:25:30;2.67;;;1.07;;
65567;SDS011;52211;50.154;8.682;2023-03-30T16:28:16;2.00;;;1.20;;
65567;SDS011;52211;50.154;8.682;2023-03-30T16:30:51;1.80;;;0.80;;
65567;SDS011;52211;50.154;8.682;2023-03-30T16:33:24;3.30;;;1.53;;
65567;SDS011;52211;50.154;8.682;2023-03-30T16:35:51;1.47;;;0.80;;
65567;SDS011;52211;50.154;8.682;2023-03-30T16:38:18;1.20;;;1.10;;
65567;SDS011;52211;50.154;8.682;2023-03-30T16:40:51;3.07;;;1.20;;
65567;SDS011;52211;50.154;8.682;2023-03-30T16:43:27;3.97;;;1.37;;
65567;SDS011;52211;50.154;8.682;2023-03-30T16:45:56;4.37;;;1.40;;
65567;SDS011;52211;50.154;8.682;2023-03-30T16:48:23;3.13;;;1.10;;
65567;SDS011;52211;50.154;8.682;2023-03-30T16:50:52;0.90;;;0.90;;
65567;SDS011;52211;50.154;8.682;2023-03-30T16:53:21;1.70;;;0.90;;
65567;SDS011;52211;50.154;8.682;2023-03-30T16:55:49;1.07;;;0.70;;
65567;SDS011;52211;50.154;8.682;2023-03-30T16:58:16;1.50;;;0.60;;
65567;SDS011;52211;50.154;8.682;2023-03-30T17:00:46;1.17;;;1.03;;
65567;SDS011;52211;50.154;8.682;2023-03-30T17:03:17;2.97;;;1.40;;
65567;SDS011;52211;50.154;8.682;2023-03-30T17:05:45;2.13;;;0.90;;
65567;SDS011;52211;50.154;8.682;2023-03-30T17:08:20;1.23;;;0.87;;
65567;SDS011;52211;50.154;8.682;2023-03-30T17:10:50;1.10;;;1.00;;
65567;SDS011;52211;50.154;8.682;2023-03-30T17:13:26;1.97;;;1.20;;
65567;SDS011;52211;50.154;8.682;2023-03-30T17:15:58;2.37;;;1.33;;
65567;SDS011;52211;50.154;8.682;2023-03-30T17:18:28;1.03;;;1.03;;
65567;SDS011;52211;50.154;8.682;2023-03-30T17:20:56;1.13;;;1.00;;
65567;SDS011;52211;50.154;8.682;2023-03-30T17:23:28;2.57;;;1.03;;
65567;SDS011;52211;50.154;8.682;2023-03-30T17:26:01;3.30;;;1.30;;
65567;SDS011;52211;50.154;8.682;2023-03-30T17:28:35;0.93;;;0.90;;
65567;SDS011;52211;50.154;8.682;2023-03-30T17:31:19;3.03;;;1.30;;
65567;SDS011;52211;50.154;8.682;2023-03-30T17:33:52;1.93;;;1.10;;
65567;SDS011;52211;50.154;8.682;2023-03-30T17:36:20;0.80;;;0.80;;
65567;SDS011;52211;50.154;8.682;2023-03-30T17:38:52;1.33;;;1.00;;
65567;SDS011;52211;50.154;8.682;2023-03-30T17:41:24;1.73;;;0.80;;
65567;SDS011;52211;50.154;8.682;2023-03-30T17:43:54;2.27;;;0.90;;
65567;SDS011;52211;50.154;8.682;2023-03-30T17:46:25;1.27;;;1.17;;
65567;SDS011;52211;50.154;8.682;2023-03-30T17:48:55;1.63;;;1.17;;
65567;SDS011;52211;50.154;8.682;2023-03-30T17:51:23;1.93;;;1.10;;
65567;SDS011;52211;50.154;8.682;2023-03-30T17:53:50;1.73;;;1.43;;
65567;SDS011;52211;50.154;8.682;2023-03-30T17:56:19;1.37;;;0.90;;
65567;SDS011;52211;50.154;8.682;2023-03-30T17:58:47;2.70;;;1.03;;
65567;SDS011;52211;50.154;8.682;2023-03-30T18:01:17;2.83;;;1.00;;
65567;SDS011;52211;50.154;8.682;2023-03-30T18:03:44;3.40;;;1.13;;
65567;SDS011;52211;50.154;8.682;2023-03-30T18:06:13;1.13;;;1.00;;
65567;SDS011;52211;50.154;8.682;2023-03-30T18:08:42;2.67;;;1.33;;
65567;SDS011;52211;50.154;8.682;2023-03-30T18:11:13;1.87;;;1.10;;
65567;SDS011;52211;50.154;8.682;2023-03-30T18:13:44;2.67;;;1.00;;
65567;SDS011;52211;50.154;8.682;2023-03-30T18:16:11;2.57;;;1.10;;
65567;SDS011;52211;50.154;8.682;2023-03-30T18:18:43;2.90;;;1.13;;
65567;SDS011;52211;50.154;8.682;2023-03-30T18:21:10;1.87;;;1.10;;
65567;SDS011;52211;50.154;8.682;2023-03-30T18:23:37;1.27;;;1.13;;
65567;SDS011;52211;50.154;8.682;2023-03-30T18:26:04;3.80;;;1.20;;
65567;SDS011;52211;50.154;8.682;2023-03-30T18:28:37;2.20;;;1.20;;
65567;SDS011;52211;50.154;8.682;2023-03-30T18:31:09;1.60;;;1.50;;
65567;SDS011;52211;50.154;8.682;2023-03-30T18:33:37;1.37;;;1.27;;
65567;SDS011;52211;50.154;8.682;2023-03-30T18:36:08;1.50;;;1.07;;
65567;SDS011;52211;50.154;8.682;2023-03-30T18:38:38;2.57;;;1.10;;
65567;SDS011;52211;50.154;8.682;2023-03-30T18:41:05;1.60;;;1.03;;
65567;SDS011;52211;50.154;8.682;2023-03-30T18:43:36;2.17;;;1.40;;
65567;SDS011;52211;50.154;8.682;2023-03-30T18:46:07;1.40;;;1.30;;